createdAt,value
2018-12-03T00:01:42.491Z,5.4
2018-12-03T00:11:41.688Z,5.4
2018-12-03T00:21:40.892Z,5.4
2018-12-03T00:31:40.095Z,5.4
2018-12-03T00:41:39.335Z,5.3
2018-12-03T00:51:38.501Z,5.3
2018-12-03T01:01:37.701Z,5.2
2018-12-03T01:11:36.906Z,5.2
2018-12-03T01:21:36.108Z,5.2
2018-12-03T01:31:35.310Z,5.1
2018-12-03T01:41:34.519Z,5.1
2018-12-03T01:51:33.718Z,5.1
2018-12-03T02:01:32.915Z,5.1
2018-12-03T02:11:32.121Z,5.2
2018-12-03T02:21:31.322Z,5.2
2018-12-03T02:31:30.522Z,5.1
2018-12-03T02:41:29.719Z,5.1
2018-12-03T02:51:28.926Z,5.1
2018-12-03T03:01:28.128Z,5.3
2018-12-03T03:11:27.327Z,5.3
2018-12-03T03:21:26.525Z,5.4
2018-12-03T03:31:25.732Z,5.5
2018-12-03T03:41:24.930Z,5.6
2018-12-03T03:51:24.130Z,5.7
2018-12-03T04:01:23.336Z,5.8
2018-12-03T04:11:22.547Z,5.6
2018-12-03T04:21:21.747Z,5.6
2018-12-03T04:31:20.957Z,5.5
2018-12-03T04:41:20.159Z,5.5
2018-12-03T04:51:19.365Z,5.5
2018-12-03T05:01:18.622Z,5.4
2018-12-03T05:11:17.781Z,5.4
2018-12-03T05:21:16.991Z,5.2
2018-12-03T05:31:16.193Z,2.2
2018-12-03T05:41:15.400Z,0.7
2018-12-03T05:51:14.661Z,0.1
2018-12-03T06:01:13.806Z,0.4
2018-12-03T06:11:13.008Z,0.1
2018-12-03T06:21:12.208Z,-0.1
2018-12-03T06:31:11.416Z,-0.4
2018-12-03T06:41:10.618Z,0
2018-12-03T06:51:09.816Z,0.1
2018-12-03T07:01:09.017Z,-0.1
2018-12-03T07:11:08.222Z,-0.1
2018-12-03T07:21:07.423Z,0.2
2018-12-03T07:31:06.626Z,0.5
2018-12-03T07:41:05.846Z,0.4
2018-12-03T07:51:05.025Z,0.8
2018-12-03T08:01:04.240Z,1.3
2018-12-03T08:11:03.475Z,1.8
2018-12-03T08:21:02.629Z,0.6
2018-12-03T08:31:01.825Z,0.8
2018-12-03T08:41:01.029Z,1.4
2018-12-03T08:51:00.243Z,1.9
2018-12-03T09:00:59.488Z,2.3
2018-12-03T09:10:58.631Z,2.9
2018-12-03T09:20:57.886Z,3.4
2018-12-03T09:30:57.905Z,4.1
2018-12-03T09:40:56.244Z,4.2
2018-12-03T09:50:55.487Z,4.9
2018-12-03T10:00:54.642Z,5.3
2018-12-03T10:10:53.841Z,5.8
2018-12-03T10:20:53.035Z,5.8
2018-12-03T10:30:52.239Z,5.7
2018-12-03T10:40:51.439Z,6
2018-12-03T10:50:50.642Z,6.3
2018-12-03T11:00:49.845Z,7.5
2018-12-03T11:10:49.055Z,8.3
2018-12-03T11:20:48.250Z,9
2018-12-03T11:30:47.449Z,8.8
2018-12-03T11:40:46.655Z,7.5
2018-12-03T11:50:45.861Z,6.9
2018-12-03T12:00:45.070Z,6.9
2018-12-03T12:10:44.264Z,7.1
2018-12-03T12:20:43.470Z,6.9
2018-12-03T12:30:42.669Z,7
2018-12-03T12:40:41.872Z,7
2018-12-03T12:50:41.076Z,6.9
2018-12-03T13:00:40.452Z,6.1
2018-12-03T13:10:39.483Z,5.7
2018-12-03T13:20:38.695Z,5.5
2018-12-03T13:30:37.890Z,5.4
2018-12-03T13:40:37.094Z,4.8
2018-12-03T13:50:36.347Z,4.3
2018-12-03T14:00:35.502Z,3.8
2018-12-03T14:10:34.704Z,3.7
2018-12-03T14:20:33.904Z,3.5
2018-12-03T14:30:33.102Z,3.3
2018-12-03T14:40:32.302Z,2.9
2018-12-03T14:50:31.517Z,2.8
2018-12-03T15:00:30.714Z,2.7
2018-12-03T15:10:29.915Z,2.6
2018-12-03T15:20:29.125Z,2.4
2018-12-03T15:30:28.327Z,2.4
2018-12-03T15:40:27.531Z,2.3
2018-12-03T15:50:26.727Z,2.2
2018-12-03T16:00:25.923Z,1.8
2018-12-03T16:10:25.140Z,1.8
2018-12-03T16:20:24.332Z,1.8
2018-12-03T16:30:23.534Z,1.4
2018-12-03T16:40:22.733Z,1.2
2018-12-03T16:50:21.950Z,1.1
2018-12-03T17:00:21.144Z,1.1
2018-12-03T17:10:20.399Z,1.2
2018-12-03T17:20:19.544Z,1.6
2018-12-03T17:30:18.748Z,1.8
2018-12-03T17:40:17.955Z,1.9
2018-12-03T17:50:17.161Z,1.9
2018-12-03T18:00:16.369Z,3.4
2018-12-03T18:10:15.687Z,4.4
2018-12-03T18:20:14.790Z,4.9
2018-12-03T18:30:13.999Z,5.3
2018-12-03T18:40:13.202Z,5.4
2018-12-03T18:50:12.412Z,5.5
2018-12-03T19:00:11.628Z,5.6
2018-12-03T19:10:10.826Z,5.8
2018-12-03T19:20:10.049Z,5.8
2018-12-03T19:30:09.240Z,5.7
2018-12-03T19:40:08.472Z,5.7
2018-12-03T19:50:07.660Z,5.9
2018-12-03T20:00:06.867Z,6
2018-12-03T20:10:06.082Z,5.8
2018-12-03T20:20:05.287Z,5.6
2018-12-03T20:30:04.501Z,5.4
2018-12-03T20:40:03.705Z,5.4
2018-12-03T20:50:02.918Z,5.3
2018-12-03T21:00:02.130Z,5.2
2018-12-03T21:10:01.338Z,5.2
2018-12-03T21:20:00.542Z,5.4
2018-12-03T21:29:59.746Z,5.5
2018-12-03T21:39:58.956Z,5.5
2018-12-03T21:50:04.024Z,5.3
2018-12-03T21:59:57.359Z,5.1
2018-12-03T22:09:56.563Z,4.9
2018-12-03T22:19:55.769Z,4.9
2018-12-03T22:29:54.977Z,5.2
2018-12-03T22:39:54.176Z,5.5
2018-12-03T22:49:53.386Z,5.7
2018-12-03T22:59:52.591Z,5.6
2018-12-03T23:09:51.792Z,5.4
2018-12-03T23:19:50.995Z,5.3
2018-12-03T23:29:50.201Z,5
2018-12-03T23:39:49.398Z,5
2018-12-03T23:49:48.614Z,5.1
2018-12-03T23:59:47.816Z,5
